Time;durP1;ratioP1;P1;durP2;ratioP2;P2;SDS_P1;SDS_P2;PMS_P1;PMS_P2;Temp;Humidity;BMP_temperature;BMP_pressure;BME280_temperature;BME280_humidity;BME280_pressure;Samples;Min_cycle;Max_cycle;Signal;HPM_P1;HPM_P2
2021/04/02 06:01:40;;;;;;;;;;;;;;;;;;5342466;23;1757;-66
2021/04/02 06:04:06;;;;;;;;;;;;;;;;;;4943559;28;825;-67
2021/04/02 06:06:33;;;;;;;;;;;;;;;;;;4936221;29;1469;-67
2021/04/02 06:08:59;;;;;;;;;;;;;;;;;;4936263;29;1561;-67
2021/04/02 06:11:24;;;;;;;;;;;;;;;;;;4936204;29;1907;-66
2021/04/02 06:13:49;;;;;;;;;;;;;;;;;;4935948;29;1315;-67
2021/04/02 06:16:15;;;;;;;;;;;;;;;;;;4936077;29;1309;-67
2021/04/02 06:18:41;;;;;;;;;;;;;;;;;;4937092;29;987;-67
2021/04/02 06:21:06;;;;;;;;;;;;;;;;;;4936012;29;1382;-67
2021/04/02 06:23:36;;;;;;;;;;;;;;;;;;4937337;29;814;-67
2021/04/02 06:26:03;;;;;;;;;;;;;;;;;;4935975;29;1217;-67
2021/04/02 06:28:33;;;;;;;;;;;;;;;;;;4937150;29;822;-66
2021/04/02 06:30:59;;;;;;;;;;;;;;;;;;4936845;29;1948;-66
2021/04/02 06:33:31;;;;;;;;;;;;;;;;;;4937944;29;1238;-67
2021/04/02 06:35:56;;;;;;;;;;;;;;;;;;4941299;29;853;-67
2021/04/02 06:38:21;;;;;;;;;;;;;;;;;;4939755;29;1204;-67
2021/04/02 06:40:47;;;;;;;;;;;;;;;;;;4939887;29;1336;-67
2021/04/02 06:43:12;;;;;;;;;;;;;;;;;;4939668;29;1192;-67
2021/04/02 06:45:38;;;;;;;;;;;;;;;;;;4940652;29;866;-68
2021/04/02 06:48:08;;;;;;;;;;;;;;;;;;4940845;29;861;-67
2021/04/02 06:50:34;;;;;;;;;;;;;;;;;;4940730;29;1890;-67
2021/04/02 06:53:01;;;;;;;;;;;;;;;;;;4939430;29;1331;-68
2021/04/02 06:55:26;;;;;;;;;;;;;;;;;;4940421;29;901;-67
2021/04/02 06:57:52;;;;;;;;;;;;;;;;;;4939430;29;1286;-69
2021/04/02 07:00:20;;;;;;;;;;;;;;;;;;4940684;29;1335;-67
2021/04/02 07:02:46;;;;;;;;;;;;;;;;;;4939171;29;1355;-68
2021/04/02 07:05:14;;;;;;;;;;;;;;;;;;4939075;29;1578;-67
2021/04/02 07:07:40;;;;;;;;;;;;;;;;;;4940551;29;901;-68
2021/04/02 07:10:06;;;;;;;;;;;;;;;;;;4939010;29;1442;-68
2021/04/02 07:12:32;;;;;;;;;;;;;;;;;;4938938;29;1970;-68
2021/04/02 07:14:58;;;;;;;;;;;;;;;;;;4938973;29;1205;-68
2021/04/02 07:17:23;;;;;;;;;;;;;;;;;;4940293;29;1000;-67
2021/04/02 07:19:50;;;;;;;;;;;;;;;;;;4939095;29;1322;-67
2021/04/02 07:22:16;;;;;;;;;;;;;;;;;;4939187;29;1686;-68
2021/04/02 07:24:41;;;;;;;;;;;;;;;;;;4939846;29;897;-68
2021/04/02 07:27:07;;;;;;;;;;;;;;;;;;4940097;29;869;-67
2021/04/02 07:29:33;;;;;;;;;;;;;;;;;;4938939;29;1236;-67
2021/04/02 07:31:59;;;;;;;;;;;;;;;;;;4938731;29;1890;-67
2021/04/02 07:34:24;;;;;;;;;;;;;;;;;;4939961;29;802;-66
2021/04/02 07:36:50;;;;;;;;;;;;;;;;;;4939943;29;873;-67
2021/04/02 07:39:21;;;;;;;;;;;;;;;;;;4940011;29;873;-67
2021/04/02 07:41:48;;;;;;;;;;;;;;;;;;4938510;29;1437;-67
2021/04/02 07:44:18;;;;;;;;;;;;;;;;;;4938043;29;1588;-67
2021/04/02 07:47:19;;;;;;;;;;;;;;;;;;4939682;29;847;-67
2021/04/02 07:49:47;;;;;;;;;;;;;;;;;;4918651;29;1289;-68
2021/04/02 07:52:12;;;;;;;;;;;;;;;;;;4935359;29;1890;-68
2021/04/02 07:54:41;;;;;;;;;;;;;;;;;;4939567;29;959;-68
2021/04/02 07:57:12;;;;;;;;;;;;;;;;;;4938410;29;1395;-67
2021/04/02 07:59:42;;;;;;;;;;;;;;;;;;4939566;29;818;-69
2021/04/02 08:02:15;;;;;;;;;;;;;;;;;;4938104;29;1382;-68
2021/04/02 08:04:41;;;;;;;;;;;;;;;;;;4938104;29;1375;-69
2021/04/02 08:07:17;;;;;;;;;;;;;;;;;;4938157;29;1245;-68
2021/04/02 08:09:46;;;;;;;;;;;;;;;;;;4939470;29;932;-68
2021/04/02 08:12:12;;;;;;;;;;;;;;;;;;4939138;29;1899;-69
2021/04/02 08:14:37;;;;;;;;;;;;;;;;;;4939185;29;1114;-69
2021/04/02 08:17:07;;;;;;;;;;;;;;;;;;4937916;29;1360;-68
2021/04/02 08:19:33;;;;;;;;;;;;;;;;;;4939259;29;936;-68
2021/04/02 08:22:01;;;;;;;;;;;;;;;;;;4938018;29;1489;-69
2021/04/02 08:24:45;;;;;;;;;;;;;;;;;;4939112;29;931;-68
2021/04/02 08:27:11;;;;;;;;;;;;;;;;;;4939075;29;999;-67
2021/04/02 08:29:37;;;;;;;;;;;;;;;;;;4937832;29;1538;-68
2021/04/02 08:32:07;;;;;;;;;;;;;;;;;;4937576;29;1958;-69
2021/04/02 08:34:33;;;;;;;;;;;;;;;;;;4938606;29;810;-69
2021/04/02 08:37:00;;;;;;;;;;;;;;;;;;4937590;29;1165;-69
2021/04/02 08:39:25;;;;;;;;;;;;;;;;;;4938919;29;892;-68
2021/04/02 08:41:54;;;;;;;;;;;;;;;;;;4937504;29;1406;-66
2021/04/02 08:44:25;;;;;;;;;;;;;;;;;;4937350;29;1589;-67
2021/04/02 08:46:51;;;;;;;;;;;;;;;;;;4937467;29;1225;-68
2021/04/02 08:49:16;;;;;;;;;;;;;;;;;;4938483;29;818;-67
2021/04/02 08:51:48;;;;;;;;;;;;;;;;;;4938474;29;1944;-68
2021/04/02 08:54:16;;;;;;;;;;;;;;;;;;4938386;29;825;-69
2021/04/02 08:56:42;;;;;;;;;;;;;;;;;;4937878;29;984;-68
2021/04/02 08:59:08;;;;;;;;;;;;;;;;;;4936969;29;1357;-67
2021/04/02 09:01:36;;;;;;;;;;;;;;;;;;4937062;29;1398;-68
2021/04/02 09:04:01;;;;;;;;;;;;;;;;;;4938210;29;889;-67
2021/04/02 09:06:27;;;;;;;;;;;;;;;;;;4938454;29;842;-67
2021/04/02 09:08:52;;;;;;;;;;;;;;;;;;4937085;29;1248;-67
2021/04/02 09:11:18;;;;;;;;;;;;;;;;;;4969073;28;1935;-67
2021/04/02 09:13:44;;;;;;;;;;;;;;;;;;4936577;29;1374;-68
2021/04/02 09:16:11;;;;;;;;;;;;;;;;;;4938191;29;835;-68
2021/04/02 09:18:47;;;;;;;;;;;;;;;;;;4938107;29;916;-68
2021/04/02 09:21:12;;;;;;;;;;;;;;;;;;4936780;29;1377;-68
2021/04/02 09:23:38;;;;;;;;;;;;;;;;;;4937682;29;798;-69
2021/04/02 09:26:06;;;;;;;;;;;;;;;;;;4937818;29;877;-67
2021/04/02 09:28:34;;;;;;;;;;;;;;;;;;4936604;29;2525;-67
2021/04/02 09:31:14;;;;;;;;;;;;;;;;;;4937956;29;1899;-67
2021/04/02 09:33:43;;;;;;;;;;;;;;;;;;4936292;29;1230;-68
2021/04/02 09:36:09;;;;;;;;;;;;;;;;;;4937831;29;857;-67
2021/04/02 09:38:35;;;;;;;;;;;;;;;;;;4936498;29;1217;-67
2021/04/02 09:41:00;;;;;;;;;;;;;;;;;;4937973;29;1406;-68
2021/04/02 09:43:25;;;;;;;;;;;;;;;;;;4936491;29;1505;-69
2021/04/02 09:45:51;;;;;;;;;;;;;;;;;;4937663;29;1308;-69
2021/04/02 09:48:22;;;;;;;;;;;;;;;;;;4937797;29;861;-68
2021/04/02 09:50:47;;;;;;;;;;;;;;;;;;4936046;29;1882;-68
2021/04/02 09:53:14;;;;;;;;;;;;;;;;;;4935723;29;1284;-68
2021/04/02 09:55:39;;;;;;;;;;;;;;;;;;4936069;29;2560;-69
2021/04/02 09:58:04;;;;;;;;;;;;;;;;;;4937582;29;805;-68
2021/04/02 10:00:31;;;;;;;;;;;;;;;;;;4937168;29;1264;-67
2021/04/02 10:02:56;;;;;;;;;;;;;;;;;;4968344;28;1363;-68
2021/04/02 10:05:22;;;;;;;;;;;;;;;;;;4937170;29;850;-68
2021/04/02 10:07:49;;;;;;;;;;;;;;;;;;4936162;29;1292;-68
2021/04/02 10:10:14;;;;;;;;;;;;;;;;;;4937334;29;1288;-68
2021/04/02 10:12:39;;;;;;;;;;;;;;;;;;4935947;29;1898;-68
2021/04/02 10:15:05;;;;;;;;;;;;;;;;;;4935863;29;1563;-68
2021/04/02 10:17:30;;;;;;;;;;;;;;;;;;4937275;29;1178;-68
2021/04/02 10:19:55;;;;;;;;;;;;;;;;;;4937306;29;914;-68
2021/04/02 10:22:21;;;;;;;;;;;;;;;;;;4937546;29;1449;-70
2021/04/02 10:24:46;;;;;;;;;;;;;;;;;;4935593;29;1437;-68
2021/04/02 10:27:11;;;;;;;;;;;;;;;;;;4937232;29;885;-67
2021/04/02 10:29:37;;;;;;;;;;;;;;;;;;4935998;29;1261;-69
2021/04/02 10:32:02;;;;;;;;;;;;;;;;;;4935708;29;1966;-69
2021/04/02 10:34:28;;;;;;;;;;;;;;;;;;4935709;29;1552;-68
2021/04/02 10:36:53;;;;;;;;;;;;;;;;;;4936955;29;821;-67
2021/04/02 10:39:18;;;;;;;;;;;;;;;;;;4937160;29;877;-68
2021/04/02 10:41:44;;;;;;;;;;;;;;;;;;4937039;29;1409;-68
2021/04/02 10:44:09;;;;;;;;;;;;;;;;;;4936996;29;806;-67
2021/04/02 10:46:34;;;;;;;;;;;;;;;;;;4936831;29;979;-67
2021/04/02 10:48:59;;;;;;;;;;;;;;;;;;4937033;29;894;-69
2021/04/02 10:51:25;;;;;;;;;;;;;;;;;;4936911;29;1890;-68
2021/04/02 10:53:52;;;;;;;;;;;;;;;;;;4936656;29;919;-68
2021/04/02 10:56:17;;;;;;;;;;;;;;;;;;4936790;29;853;-68
2021/04/02 10:58:42;;;;;;;;;;;;;;;;;;4937048;29;1209;-66
2021/04/02 11:01:08;;;;;;;;;;;;;;;;;;4936847;29;1323;-65
2021/04/02 11:03:33;;;;;;;;;;;;;;;;;;4935500;29;1382;-68
2021/04/02 11:05:58;;;;;;;;;;;;;;;;;;4936863;29;973;-67
2021/04/02 11:08:24;;;;;;;;;;;;;;;;;;4936920;29;925;-67
2021/04/02 11:10:49;;;;;;;;;;;;;;;;;;4936759;29;1911;-66
2021/04/02 11:13:14;;;;;;;;;;;;;;;;;;4935433;29;1387;-67
2021/04/02 11:15:40;;;;;;;;;;;;;;;;;;4935597;29;901;-67
2021/04/02 11:18:05;;;;;;;;;;;;;;;;;;4967702;28;1257;-69
2021/04/02 11:20:30;;;;;;;;;;;;;;;;;;4971055;28;1302;-69
2021/04/02 11:22:59;;;;;;;;;;;;;;;;;;4939912;29;798;-68
2021/04/02 11:25:24;;;;;;;;;;;;;;;;;;4938983;29;1720;-67
2021/04/02 11:27:50;;;;;;;;;;;;;;;;;;4938924;29;1407;-67
2021/04/02 11:30:16;;;;;;;;;;;;;;;;;;4971099;28;1535;-68
2021/04/02 11:32:41;;;;;;;;;;;;;;;;;;4939693;29;1902;-67
2021/04/02 11:35:08;;;;;;;;;;;;;;;;;;4938646;29;1226;-70
2021/04/02 11:37:33;;;;;;;;;;;;;;;;;;4938915;29;1096;-68
2021/04/02 11:39:58;;;;;;;;;;;;;;;;;;4939908;29;909;-68
2021/04/02 11:42:24;;;;;;;;;;;;;;;;;;4939934;29;1394;-68
2021/04/02 11:44:49;;;;;;;;;;;;;;;;;;4938478;29;1391;-68
2021/04/02 11:47:14;;;;;;;;;;;;;;;;;;4939833;29;865;-67
2021/04/02 11:49:40;;;;;;;;;;;;;;;;;;4938625;29;913;-68
2021/04/02 11:52:05;;;;;;;;;;;;;;;;;;4938464;29;1974;-68
2021/04/02 11:54:31;;;;;;;;;;;;;;;;;;4938260;29;1201;-68
2021/04/02 11:56:56;;;;;;;;;;;;;;;;;;4939528;29;794;-67
2021/04/02 11:59:21;;;;;;;;;;;;;;;;;;4938386;29;1241;-68
2021/04/02 12:01:46;;;;;;;;;;;;;;;;;;4939477;29;1331;-68
2021/04/02 12:04:12;;;;;;;;;;;;;;;;;;4938094;29;1181;-69
2021/04/02 12:06:38;;;;;;;;;;;;;;;;;;4938339;29;1400;-68
2021/04/02 12:09:04;;;;;;;;;;;;;;;;;;4922425;29;2586;-66
2021/04/02 12:11:29;;;;;;;;;;;;;;;;;;4939197;29;1973;-66
2021/04/02 12:13:54;;;;;;;;;;;;;;;;;;4939159;29;917;-64
2021/04/02 12:16:20;;;;;;;;;;;;;;;;;;4938176;29;834;-65
2021/04/02 12:18:45;;;;;;;;;;;;;;;;;;4938309;29;1183;-66
2021/04/02 12:21:10;;;;;;;;;;;;;;;;;;4939117;29;1393;-65
2021/04/02 12:23:36;;;;;;;;;;;;;;;;;;4939108;29;1076;-66
2021/04/02 12:26:01;;;;;;;;;;;;;;;;;;4938989;29;821;-67
2021/04/02 12:28:26;;;;;;;;;;;;;;;;;;4939205;29;1216;-67
2021/04/02 12:30:51;;;;;;;;;;;;;;;;;;4937798;29;1890;-65
2021/04/02 12:33:17;;;;;;;;;;;;;;;;;;4938519;29;921;-65
2021/04/02 12:35:42;;;;;;;;;;;;;;;;;;4937649;29;1407;-65
2021/04/02 12:38:10;;;;;;;;;;;;;;;;;;4939079;29;893;-66
2021/04/02 12:40:37;;;;;;;;;;;;;;;;;;4937392;29;1377;-68
2021/04/02 12:43:02;;;;;;;;;;;;;;;;;;4938915;29;1302;-68
2021/04/02 12:45:28;;;;;;;;;;;;;;;;;;4937429;29;1239;-68
2021/04/02 12:47:54;;;;;;;;;;;;;;;;;;4937440;29;1537;-68
2021/04/02 12:50:20;;;;;;;;;;;;;;;;;;4938629;29;1390;-68
2021/04/02 12:52:46;;;;;;;;;;;;;;;;;;4937198;29;1903;-68
2021/04/02 12:55:13;;;;;;;;;;;;;;;;;;4937156;29;1349;-67
2021/04/02 12:57:39;;;;;;;;;;;;;;;;;;4937213;29;1404;-66
2021/04/02 13:00:05;;;;;;;;;;;;;;;;;;4937137;29;1474;-66
2021/04/02 13:02:30;;;;;;;;;;;;;;;;;;4938093;29;1022;-66
2021/04/02 13:04:56;;;;;;;;;;;;;;;;;;4938263;29;858;-68
2021/04/02 13:07:21;;;;;;;;;;;;;;;;;;4938104;29;846;-69
2021/04/02 13:09:46;;;;;;;;;;;;;;;;;;4937066;29;1293;-68
2021/04/02 13:12:11;;;;;;;;;;;;;;;;;;4938092;29;1898;-66
2021/04/02 13:14:37;;;;;;;;;;;;;;;;;;4938072;29;850;-66
2021/04/02 13:17:06;;;;;;;;;;;;;;;;;;4938140;29;850;-67
2021/04/02 13:19:31;;;;;;;;;;;;;;;;;;4938211;29;893;-67
2021/04/02 13:21:57;;;;;;;;;;;;;;;;;;4936719;29;1358;-66
2021/04/02 13:24:22;;;;;;;;;;;;;;;;;;4968760;28;924;-66
2021/04/02 13:26:47;;;;;;;;;;;;;;;;;;4936747;29;2357;-68
2021/04/02 13:29:12;;;;;;;;;;;;;;;;;;4936793;29;795;-67
2021/04/02 13:31:38;;;;;;;;;;;;;;;;;;4936386;29;1887;-66
2021/04/02 13:34:03;;;;;;;;;;;;;;;;;;4937733;29;873;-66
2021/04/02 13:36:28;;;;;;;;;;;;;;;;;;4938139;29;897;-65
2021/04/02 13:38:54;;;;;;;;;;;;;;;;;;4937681;29;1046;-64
2021/04/02 13:41:20;;;;;;;;;;;;;;;;;;4937388;29;1299;-63
2021/04/02 13:43:46;;;;;;;;;;;;;;;;;;4937313;29;928;-63
2021/04/02 13:46:12;;;;;;;;;;;;;;;;;;4937646;29;841;-64
2021/04/02 13:48:38;;;;;;;;;;;;;;;;;;4936498;29;1229;-64
2021/04/02 13:51:04;;;;;;;;;;;;;;;;;;4936296;29;1890;-64
2021/04/02 13:53:29;;;;;;;;;;;;;;;;;;4937179;29;875;-64
2021/04/02 13:55:55;;;;;;;;;;;;;;;;;;4937977;29;802;-66
2021/04/02 13:58:20;;;;;;;;;;;;;;;;;;4937482;29;1344;-67
2021/04/02 14:00:46;;;;;;;;;;;;;;;;;;4948034;28;1373;-67
2021/04/02 14:03:11;;;;;;;;;;;;;;;;;;4957078;28;1502;-67
2021/04/02 14:05:36;;;;;;;;;;;;;;;;;;4956145;28;1825;-66
2021/04/02 14:08:02;;;;;;;;;;;;;;;;;;4960283;28;1699;-67
2021/04/02 14:10:30;;;;;;;;;;;;;;;;;;4955968;28;1461;-66
2021/04/02 14:12:55;;;;;;;;;;;;;;;;;;4971144;28;1894;-67
2021/04/02 14:15:22;;;;;;;;;;;;;;;;;;4974087;28;1208;-67
2021/04/02 14:17:47;;;;;;;;;;;;;;;;;;4976023;28;865;-67
2021/04/02 14:20:17;;;;;;;;;;;;;;;;;;4975644;28;1366;-68
2021/04/02 14:22:42;;;;;;;;;;;;;;;;;;4974264;28;1233;-68
2021/04/02 14:25:08;;;;;;;;;;;;;;;;;;4975244;28;814;-68
2021/04/02 14:27:35;;;;;;;;;;;;;;;;;;4975702;28;1351;-68
2021/04/02 14:30:00;;;;;;;;;;;;;;;;;;4975777;28;1052;-68
2021/04/02 14:32:25;;;;;;;;;;;;;;;;;;4974501;28;1898;-68
2021/04/02 14:34:50;;;;;;;;;;;;;;;;;;4975430;28;873;-67
2021/04/02 14:37:16;;;;;;;;;;;;;;;;;;4966174;28;1507;-68
2021/04/02 14:39:41;;;;;;;;;;;;;;;;;;4956473;28;1900;-68
2021/04/02 14:42:06;;;;;;;;;;;;;;;;;;4954448;28;1899;-68
2021/04/02 14:44:32;;;;;;;;;;;;;;;;;;4954778;28;1339;-67
2021/04/02 14:46:57;;;;;;;;;;;;;;;;;;4954933;28;1448;-68
2021/04/02 14:49:22;;;;;;;;;;;;;;;;;;4956390;28;823;-67
2021/04/02 14:51:47;;;;;;;;;;;;;;;;;;4954597;28;1895;-68
2021/04/02 14:54:13;;;;;;;;;;;;;;;;;;4956414;28;1080;-68
2021/04/02 14:56:38;;;;;;;;;;;;;;;;;;4959961;28;1227;-69
2021/04/02 14:59:03;;;;;;;;;;;;;;;;;;4958717;28;1410;-68
2021/04/02 15:01:29;;;;;;;;;;;;;;;;;;4958475;28;1343;-68
2021/04/02 15:03:54;;;;;;;;;;;;;;;;;;4958247;28;893;-68
2021/04/02 15:06:19;;;;;;;;;;;;;;;;;;4959690;28;885;-68
2021/04/02 15:08:45;;;;;;;;;;;;;;;;;;4958722;28;1339;-68
2021/04/02 15:11:10;;;;;;;;;;;;;;;;;;4959559;28;1895;-68
2021/04/02 15:13:35;;;;;;;;;;;;;;;;;;4959485;28;876;-67
2021/04/02 15:16:01;;;;;;;;;;;;;;;;;;4959410;28;961;-68
2021/04/02 15:18:26;;;;;;;;;;;;;;;;;;4959535;28;862;-68
2021/04/02 15:20:51;;;;;;;;;;;;;;;;;;4958155;28;1326;-68
2021/04/02 15:23:16;;;;;;;;;;;;;;;;;;4957761;28;912;-68
2021/04/02 15:25:41;;;;;;;;;;;;;;;;;;4958073;28;1122;-68
2021/04/02 15:28:07;;;;;;;;;;;;;;;;;;4959482;28;893;-67
2021/04/02 15:30:32;;;;;;;;;;;;;;;;;;4959165;28;1394;-68
2021/04/02 15:32:57;;;;;;;;;;;;;;;;;;4958001;28;1898;-68
2021/04/02 15:35:23;;;;;;;;;;;;;;;;;;4958982;28;885;-68
2021/04/02 15:37:52;;;;;;;;;;;;;;;;;;4957955;28;1412;-68
2021/04/02 15:40:21;;;;;;;;;;;;;;;;;;4957952;28;1398;-68
2021/04/02 15:42:46;;;;;;;;;;;;;;;;;;4957821;28;1227;-68
2021/04/02 15:45:12;;;;;;;;;;;;;;;;;;4958951;28;1043;-68
2021/04/02 15:47:38;;;;;;;;;;;;;;;;;;4958759;28;806;-68
2021/04/02 15:50:05;;;;;;;;;;;;;;;;;;4957671;28;1583;-68
2021/04/02 15:52:30;;;;;;;;;;;;;;;;;;4958923;28;1969;-68
2021/04/02 15:54:55;;;;;;;;;;;;;;;;;;4957819;29;1159;-67
2021/04/02 15:57:20;;;;;;;;;;;;;;;;;;4957420;28;838;-68
2021/04/02 15:59:46;;;;;;;;;;;;;;;;;;4957755;28;1548;-68
2021/04/02 16:02:11;;;;;;;;;;;;;;;;;;4957411;28;1454;-68
2021/04/02 16:04:36;;;;;;;;;;;;;;;;;;4956927;28;1202;-68
2021/04/02 16:07:02;;;;;;;;;;;;;;;;;;4958645;28;905;-68
2021/04/02 16:09:27;;;;;;;;;;;;;;;;;;4958437;28;786;-67
2021/04/02 16:11:52;;;;;;;;;;;;;;;;;;4958687;28;1970;-68
2021/04/02 16:14:18;;;;;;;;;;;;;;;;;;4957185;28;1206;-68
2021/04/02 16:16:43;;;;;;;;;;;;;;;;;;4957208;28;1315;-68
2021/04/02 16:19:09;;;;;;;;;;;;;;;;;;4958388;28;880;-68
2021/04/02 16:21:35;;;;;;;;;;;;;;;;;;4958290;28;1449;-68
2021/04/02 16:24:00;;;;;;;;;;;;;;;;;;4958106;28;976;-68
2021/04/02 16:26:25;;;;;;;;;;;;;;;;;;4957157;28;1233;-69
2021/04/02 16:28:51;;;;;;;;;;;;;;;;;;4956951;28;1213;-69
2021/04/02 16:31:16;;;;;;;;;;;;;;;;;;4956787;28;1981;-68
2021/04/02 16:33:42;;;;;;;;;;;;;;;;;;4956670;28;1221;-68
2021/04/02 16:36:07;;;;;;;;;;;;;;;;;;4958114;28;1000;-68
2021/04/02 16:38:33;;;;;;;;;;;;;;;;;;4956747;28;1434;-67
2021/04/02 16:40:58;;;;;;;;;;;;;;;;;;4956680;28;1446;-69
2021/04/02 16:43:23;;;;;;;;;;;;;;;;;;4956582;28;1217;-69
2021/04/02 16:45:49;;;;;;;;;;;;;;;;;;4957671;28;837;-68
2021/04/02 16:48:14;;;;;;;;;;;;;;;;;;4957486;28;937;-69
2021/04/02 16:50:39;;;;;;;;;;;;;;;;;;4957445;28;1423;-68
2021/04/02 16:53:04;;;;;;;;;;;;;;;;;;4956244;29;1962;-68
2021/04/02 16:55:30;;;;;;;;;;;;;;;;;;4957627;28;857;-68
2021/04/02 16:57:55;;;;;;;;;;;;;;;;;;4956368;28;1102;-68
2021/04/02 17:00:22;;;;;;;;;;;;;;;;;;4957519;28;1397;-69
2021/04/02 17:02:47;;;;;;;;;;;;;;;;;;4957476;28;924;-68
2021/04/02 17:05:13;;;;;;;;;;;;;;;;;;4956212;28;1501;-68
2021/04/02 17:07:38;;;;;;;;;;;;;;;;;;4957803;28;869;-68
2021/04/02 17:10:05;;;;;;;;;;;;;;;;;;4957451;28;1419;-69
2021/04/02 17:12:30;;;;;;;;;;;;;;;;;;4956235;28;1899;-69
2021/04/02 17:14:55;;;;;;;;;;;;;;;;;;4956483;28;1118;-69
2021/04/02 17:17:22;;;;;;;;;;;;;;;;;;4956553;28;889;-69
2021/04/02 17:19:47;;;;;;;;;;;;;;;;;;4957433;28;817;-68
2021/04/02 17:22:13;;;;;;;;;;;;;;;;;;4957431;28;1295;-69
2021/04/02 17:24:38;;;;;;;;;;;;;;;;;;4955551;28;1303;-69
2021/04/02 17:27:03;;;;;;;;;;;;;;;;;;4957060;28;948;-68
2021/04/02 17:29:29;;;;;;;;;;;;;;;;;;4957261;28;1319;-68
2021/04/02 17:31:54;;;;;;;;;;;;;;;;;;4956987;28;1890;-70
2021/04/02 17:34:21;;;;;;;;;;;;;;;;;;4956942;28;826;-69
2021/04/02 17:36:47;;;;;;;;;;;;;;;;;;4955753;28;1230;-69
2021/04/02 17:39:12;;;;;;;;;;;;;;;;;;4955763;28;1200;-69
2021/04/02 17:41:37;;;;;;;;;;;;;;;;;;4955623;29;1378;-69
2021/04/02 17:44:03;;;;;;;;;;;;;;;;;;4955600;28;1207;-70
2021/04/02 17:46:28;;;;;;;;;;;;;;;;;;4956895;28;814;-70
2021/04/02 17:48:53;;;;;;;;;;;;;;;;;;4955599;28;1371;-69
2021/04/02 17:51:18;;;;;;;;;;;;;;;;;;4955709;29;1961;-69
2021/04/02 17:53:44;;;;;;;;;;;;;;;;;;4956503;28;851;-68
2021/04/02 17:56:09;;;;;;;;;;;;;;;;;;4955418;28;1360;-69
2021/04/02 17:58:35;;;;;;;;;;;;;;;;;;4955546;28;1315;-69
2021/04/02 18:01:01;;;;;;;;;;;;;;;;;;4955249;29;2356;-68
2021/04/02 18:03:26;;;;;;;;;;;;;;;;;;4955306;28;840;-68
2021/04/02 18:05:51;;;;;;;;;;;;;;;;;;4956713;28;885;-68
2021/04/02 18:08:17;;;;;;;;;;;;;;;;;;4956370;28;873;-69
2021/04/02 18:10:42;;;;;;;;;;;;;;;;;;4956527;28;1295;-69
2021/04/02 18:13:07;;;;;;;;;;;;;;;;;;4955005;28;1902;-69
2021/04/02 18:15:33;;;;;;;;;;;;;;;;;;4955269;28;1330;-69
2021/04/02 18:17:58;;;;;;;;;;;;;;;;;;4955370;28;1574;-69
2021/04/02 18:20:24;;;;;;;;;;;;;;;;;;4955226;28;1440;-69
2021/04/02 18:22:50;;;;;;;;;;;;;;;;;;4955045;28;1320;-69
2021/04/02 18:25:16;;;;;;;;;;;;;;;;;;4954985;28;1449;-69
2021/04/02 18:27:42;;;;;;;;;;;;;;;;;;4957601;28;818;-70
2021/04/02 18:30:09;;;;;;;;;;;;;;;;;;4959440;28;1394;-69
2021/04/02 18:32:34;;;;;;;;;;;;;;;;;;4960149;28;1898;-70
2021/04/02 18:34:59;;;;;;;;;;;;;;;;;;4960185;28;865;-72
2021/04/02 18:37:24;;;;;;;;;;;;;;;;;;4960296;28;889;-70
2021/04/02 18:39:50;;;;;;;;;;;;;;;;;;4960191;28;830;-71
2021/04/02 18:42:15;;;;;;;;;;;;;;;;;;4960378;28;1401;-70
2021/04/02 18:44:40;;;;;;;;;;;;;;;;;;4959915;28;956;-70
2021/04/02 18:47:06;;;;;;;;;;;;;;;;;;4960115;28;866;-69
2021/04/02 18:49:32;;;;;;;;;;;;;;;;;;4960125;28;963;-69
2021/04/02 18:51:57;;;;;;;;;;;;;;;;;;4959920;28;1899;-72
2021/04/02 18:54:23;;;;;;;;;;;;;;;;;;4959516;28;909;-69
2021/04/02 18:56:49;;;;;;;;;;;;;;;;;;4959310;28;955;-70
2021/04/02 18:59:14;;;;;;;;;;;;;;;;;;4958027;28;1209;-70
2021/04/02 19:01:40;;;;;;;;;;;;;;;;;;4959104;28;1408;-72
2021/04/02 19:04:05;;;;;;;;;;;;;;;;;;4959036;28;901;-69
2021/04/02 19:06:30;;;;;;;;;;;;;;;;;;4957667;28;1252;-70
2021/04/02 19:08:56;;;;;;;;;;;;;;;;;;4959158;28;972;-70
2021/04/02 19:11:21;;;;;;;;;;;;;;;;;;4959244;28;1910;-69
2021/04/02 19:13:46;;;;;;;;;;;;;;;;;;4957647;28;1215;-72
2021/04/02 19:16:11;;;;;;;;;;;;;;;;;;4958848;28;1040;-71
2021/04/02 19:18:37;;;;;;;;;;;;;;;;;;4957727;28;877;-71
2021/04/02 19:21:02;;;;;;;;;;;;;;;;;;4957684;28;1283;-71
2021/04/02 19:23:28;;;;;;;;;;;;;;;;;;4958801;28;948;-71
2021/04/02 19:25:53;;;;;;;;;;;;;;;;;;4958711;28;906;-70
2021/04/02 19:28:19;;;;;;;;;;;;;;;;;;4957878;29;1554;-70
2021/04/02 19:30:45;;;;;;;;;;;;;;;;;;4957440;28;1409;-70
2021/04/02 19:33:10;;;;;;;;;;;;;;;;;;4958722;28;1948;-69
2021/04/02 19:35:36;;;;;;;;;;;;;;;;;;4957381;28;968;-71
2021/04/02 19:38:01;;;;;;;;;;;;;;;;;;4958516;28;881;-70
2021/04/02 19:40:27;;;;;;;;;;;;;;;;;;4957926;28;1327;-71
2021/04/02 19:42:53;;;;;;;;;;;;;;;;;;4958551;28;857;-70
2021/04/02 19:45:18;;;;;;;;;;;;;;;;;;4957097;28;1213;-70
2021/04/02 19:47:44;;;;;;;;;;;;;;;;;;4957425;28;1213;-70
2021/04/02 19:50:12;;;;;;;;;;;;;;;;;;4957233;28;1406;-69
2021/04/02 19:52:38;;;;;;;;;;;;;;;;;;4958176;28;1967;-69
2021/04/02 19:55:03;;;;;;;;;;;;;;;;;;4956905;28;1361;-70
2021/04/02 19:57:29;;;;;;;;;;;;;;;;;;4957079;28;1358;-71
2021/04/02 19:59:54;;;;;;;;;;;;;;;;;;4956926;28;1355;-71
2021/04/02 20:02:20;;;;;;;;;;;;;;;;;;4958030;28;1307;-70
2021/04/02 20:04:45;;;;;;;;;;;;;;;;;;4957991;28;972;-70
2021/04/02 20:07:10;;;;;;;;;;;;;;;;;;4956838;28;814;-72
2021/04/02 20:09:35;;;;;;;;;;;;;;;;;;4957067;29;874;-69
2021/04/02 20:12:01;;;;;;;;;;;;;;;;;;4957895;28;1962;-70
2021/04/02 20:14:26;;;;;;;;;;;;;;;;;;4957598;28;968;-70
2021/04/02 20:16:51;;;;;;;;;;;;;;;;;;4956684;28;1417;-69
2021/04/02 20:19:16;;;;;;;;;;;;;;;;;;4958139;28;881;-70
2021/04/02 20:21:42;;;;;;;;;;;;;;;;;;4956524;28;1425;-70
2021/04/02 20:24:07;;;;;;;;;;;;;;;;;;4956569;29;882;-71
2021/04/02 20:26:33;;;;;;;;;;;;;;;;;;4956581;28;1457;-69
2021/04/02 20:28:58;;;;;;;;;;;;;;;;;;4956297;28;937;-69
2021/04/02 20:31:24;;;;;;;;;;;;;;;;;;4956306;28;1886;-69
2021/04/02 20:33:49;;;;;;;;;;;;;;;;;;4957441;28;846;-70
2021/04/02 20:36:15;;;;;;;;;;;;;;;;;;4957716;28;937;-70
2021/04/02 20:38:43;;;;;;;;;;;;;;;;;;4957581;28;868;-70
2021/04/02 20:41:09;;;;;;;;;;;;;;;;;;4956110;29;1276;-71
2021/04/02 20:43:34;;;;;;;;;;;;;;;;;;4956041;28;1698;-70
2021/04/02 20:45:59;;;;;;;;;;;;;;;;;;4957377;28;801;-70
2021/04/02 20:48:25;;;;;;;;;;;;;;;;;;4956082;28;1386;-70
2021/04/02 20:50:50;;;;;;;;;;;;;;;;;;4956579;28;1275;-71
2021/04/02 20:53:16;;;;;;;;;;;;;;;;;;4955352;29;1903;-71
2021/04/02 20:55:41;;;;;;;;;;;;;;;;;;4955820;29;1794;-70
2021/04/02 20:58:07;;;;;;;;;;;;;;;;;;4956114;28;1395;-70
2021/04/02 21:00:35;;;;;;;;;;;;;;;;;;4956971;28;1370;-69
2021/04/02 21:03:00;;;;;;;;;;;;;;;;;;4955882;28;1320;-71
2021/04/02 21:05:26;;;;;;;;;;;;;;;;;;4956793;28;901;-70
2021/04/02 21:07:51;;;;;;;;;;;;;;;;;;4955560;28;1208;-71
2021/04/02 21:10:17;;;;;;;;;;;;;;;;;;4955645;28;1295;-70
2021/04/02 21:12:43;;;;;;;;;;;;;;;;;;4956840;28;2327;-70
2021/04/02 21:15:09;;;;;;;;;;;;;;;;;;4956797;28;842;-70
2021/04/02 21:17:35;;;;;;;;;;;;;;;;;;4956825;28;834;-71
2021/04/02 21:20:00;;;;;;;;;;;;;;;;;;4955360;28;1206;-71
2021/04/02 21:22:26;;;;;;;;;;;;;;;;;;4955674;28;1458;-71
2021/04/02 21:24:51;;;;;;;;;;;;;;;;;;4955335;28;1343;-71
2021/04/02 21:27:17;;;;;;;;;;;;;;;;;;4956671;28;1112;-70
2021/04/02 21:29:43;;;;;;;;;;;;;;;;;;4955847;29;1351;-70
2021/04/02 21:32:08;;;;;;;;;;;;;;;;;;4955098;28;1969;-71
2021/04/02 21:34:34;;;;;;;;;;;;;;;;;;4956553;28;898;-70
2021/04/02 21:36:59;;;;;;;;;;;;;;;;;;4955359;28;1362;-70
2021/04/02 21:39:25;;;;;;;;;;;;;;;;;;4955442;28;3311;-70
2021/04/02 21:41:50;;;;;;;;;;;;;;;;;;4956551;28;1311;-70
2021/04/02 21:44:15;;;;;;;;;;;;;;;;;;4956020;28;984;-70
2021/04/02 21:46:40;;;;;;;;;;;;;;;;;;4955360;28;897;-70
2021/04/02 21:49:06;;;;;;;;;;;;;;;;;;4956498;28;801;-70
2021/04/02 21:51:31;;;;;;;;;;;;;;;;;;4956137;28;1962;-70
2021/04/02 21:53:56;;;;;;;;;;;;;;;;;;4954805;28;916;-70
2021/04/02 21:56:21;;;;;;;;;;;;;;;;;;4955037;28;1205;-70
2021/04/02 21:58:47;;;;;;;;;;;;;;;;;;4956179;28;945;-70
2021/04/02 22:01:12;;;;;;;;;;;;;;;;;;4954675;29;1397;-70
2021/04/02 22:03:38;;;;;;;;;;;;;;;;;;4954357;28;1397;-69
2021/04/02 22:06:03;;;;;;;;;;;;;;;;;;4956744;28;873;-69
2021/04/02 22:08:28;;;;;;;;;;;;;;;;;;4956660;28;933;-68
2021/04/02 22:10:54;;;;;;;;;;;;;;;;;;4955273;28;1371;-69
2021/04/02 22:13:19;;;;;;;;;;;;;;;;;;4955160;28;1971;-70
2021/04/02 22:15:44;;;;;;;;;;;;;;;;;;4956385;28;869;-68
2021/04/02 22:18:10;;;;;;;;;;;;;;;;;;4955333;28;1315;-68
2021/04/02 22:20:36;;;;;;;;;;;;;;;;;;4956553;28;1442;-69
2021/04/02 22:23:04;;;;;;;;;;;;;;;;;;4956506;28;859;-69
2021/04/02 22:25:33;;;;;;;;;;;;;;;;;;4955411;29;1192;-68
2021/04/02 22:27:59;;;;;;;;;;;;;;;;;;4956430;28;902;-69
2021/04/02 22:30:24;;;;;;;;;;;;;;;;;;4956375;28;1255;-69
2021/04/02 22:32:50;;;;;;;;;;;;;;;;;;4955118;28;1941;-69
2021/04/02 22:35:17;;;;;;;;;;;;;;;;;;4955090;28;1325;-68
2021/04/02 22:37:42;;;;;;;;;;;;;;;;;;4956364;28;893;-70
2021/04/02 22:40:09;;;;;;;;;;;;;;;;;;4954741;28;1369;-70
2021/04/02 22:42:35;;;;;;;;;;;;;;;;;;4956348;28;901;-68
2021/04/02 22:45:00;;;;;;;;;;;;;;;;;;4956168;28;881;-69
2021/04/02 22:47:25;;;;;;;;;;;;;;;;;;4955252;28;1375;-70
2021/04/02 22:49:50;;;;;;;;;;;;;;;;;;4956260;28;952;-69
2021/04/02 22:52:16;;;;;;;;;;;;;;;;;;4954674;28;1890;-69
2021/04/02 22:54:41;;;;;;;;;;;;;;;;;;4901620;28;905;-69
2021/04/02 22:57:06;;;;;;;;;;;;;;;;;;4956198;28;865;-69
2021/04/02 22:59:32;;;;;;;;;;;;;;;;;;4956148;28;873;-68
